パラオ の空港の天気 - METARとTAF

パラオ国際空港 ( PTRO / ROR ) - パラオ アイライ州
飛行場実況気象(Metar)
観測時間09/19 08:03 PWT (09/18 23:03 UTC)
風向・風速南南東 5m/s 瞬間風速9m/s
視程10km以上
天気現象弱いしゅう雨
全天の8割程度の雲 雲底高度 460m
全天の8割程度の雲 雲底高度 3350m
全天を覆う雲 雲底高度 8840m
気温26℃
湿度89%
気圧1012hPa
METARPTRO 182303Z 16010G17KT 9SM -SHRA BKN015CB BKN110 OVC290 26/24 A2988 RMK CB ALQDS AND OHD
過去の天気等 Google飛行場航空写真 Wunderground天気予報

過去48時間のMETAR

飛行場予報(TAF)
発表時間: 9/19 02:29 PWT (9/18 17:29 UTC)
予報対象時間: 19日3時 PWT ~ 20日3時 PWT
風向・風速南南東 4m/s
視程10km以上
天気現象周辺でしゅう雨
全天の4割程度の雲 雲底高度 490m
全天の8割程度の雲 雲底高度 3960m
19日9時 PWT ~ 19日13時 PWT に一時的に
風向・風速南南東 5m/s 瞬間風速 10m/s
視程8050m
天気現象弱いしゅう雨
全天の8割程度の雲 雲底高度 490m
PTRO 181729Z 1818/1918 15007KT P6SM VCSH SCT016 BKN130
TEMPO 1900/1904 15010G20KT 5SM -SHRA BKN016